Time;durP1;ratioP1;P1;durP2;ratioP2;P2;SDS_P1;SDS_P2;PMS_P1;PMS_P2;Temp;Humidity;BMP_temperature;BMP_pressure;BME280_temperature;BME280_humidity;BME280_pressure;Samples;Min_cycle;Max_cycle;Signal;HPM_P1;HPM_P2
2022/10/13 00:00:56;;;;;;;45.83;23.27;;;;;;;7.01;74.90;101725.48;1801929;79;26908;-82
2022/10/13 00:03:25;;;;;;;38.40;22.95;;;;;;;6.98;74.95;101727.92;1798809;78;25779;-82
2022/10/13 00:05:51;;;;;;;39.80;22.15;;;;;;;6.97;75.00;101728.06;1792707;79;27434;-80
2022/10/13 00:08:21;;;;;;;38.75;21.45;;;;;;;6.94;74.98;101726.51;1776883;79;26347;-80
2022/10/13 00:10:50;;;;;;;43.70;21.80;;;;;;;6.92;74.82;101724.47;1796782;79;25747;-80
2022/10/13 00:13:19;;;;;;;51.42;27.52;;;;;;;6.92;74.71;101720.95;1792986;78;25775;-81
2022/10/13 00:15:47;;;;;;;55.12;27.00;;;;;;;6.88;74.92;101718.22;1798984;79;25736;-82
2022/10/13 00:18:15;;;;;;;47.75;28.07;;;;;;;6.90;75.17;101717.59;1798307;79;28237;-82
2022/10/13 00:20:44;;;;;;;47.53;27.15;;;;;;;6.87;75.19;101715.19;1797181;79;25297;-80
2022/10/13 00:23:12;;;;;;;49.05;26.95;;;;;;;6.87;75.35;101720.03;1782471;78;25584;-82
2022/10/13 00:25:45;;;;;;;56.75;29.63;;;;;;;6.85;75.35;101719.33;1784405;79;26481;-81
2022/10/13 00:28:12;;;;;;;49.73;27.85;;;;;;;6.83;75.33;101713.77;1792667;79;25838;-81
2022/10/13 00:30:40;;;;;;;56.00;27.75;;;;;;;6.81;75.07;101713.06;1801954;78;27454;-82
2022/10/13 00:33:08;;;;;;;61.65;31.62;;;;;;;6.78;75.26;101713.33;1785686;79;25286;-82
2022/10/13 00:35:46;;;;;;;54.23;30.03;;;;;;;6.73;75.32;101715.57;1732153;81;25997;-82
2022/10/13 00:38:17;;;;;;;58.35;30.65;;;;;;;6.71;75.14;101711.72;1727412;81;25930;-81
2022/10/13 00:40:49;;;;;;;57.60;29.77;;;;;;;6.69;75.13;101719.48;1734420;81;26440;-82
2022/10/13 00:43:20;;;;;;;55.83;29.15;;;;;;;6.62;74.97;101707.20;1729425;81;27693;-82
2022/10/13 00:45:50;;;;;;;51.73;28.60;;;;;;;6.56;74.92;101705.55;1733501;81;25324;-83
2022/10/13 00:48:24;;;;;;;48.48;27.93;;;;;;;6.53;74.98;101704.48;1750473;80;25870;-82
2022/10/13 00:50:50;;;;;;;60.52;31.23;;;;;;;6.52;74.91;101707.63;1739858;81;26714;-83
2022/10/13 00:53:22;;;;;;;65.03;30.37;;;;;;;6.50;74.79;101706.09;1737297;80;25903;-83
2022/10/13 00:55:50;;;;;;;62.98;31.33;;;;;;;6.46;74.87;101712.67;1741487;81;28265;-82
2022/10/13 00:58:18;;;;;;;50.95;27.95;;;;;;;6.44;75.17;101712.78;1749981;80;25796;-81
2022/10/13 01:00:49;;;;;;;51.85;27.17;;;;;;;6.42;75.20;101705.41;1741247;81;25777;-82
2022/10/13 01:03:18;;;;;;;53.17;28.52;;;;;;;6.42;75.44;101709.89;1746762;81;25874;-81
2022/10/13 01:05:47;;;;;;;50.50;28.17;;;;;;;6.38;75.58;101705.81;1750334;81;25764;-82
2022/10/13 01:08:15;;;;;;;49.77;27.07;;;;;;;6.37;75.68;101698.82;1749788;81;27305;-81
2022/10/13 01:11:18;;;;;;;47.78;28.38;;;;;;;6.36;75.78;101705.95;1736016;81;25332;-81
2022/10/13 01:14:27;;;;;;;44.20;27.22;;;;;;;6.34;75.53;101703.06;1736127;81;26459;-82
2022/10/13 01:17:07;;;;;;;52.10;26.93;;;;;;;6.30;75.26;101698.98;1745611;81;26587;-82
2022/10/13 01:19:57;;;;;;;47.20;26.80;;;;;;;6.23;75.01;101701.33;1739173;80;26185;-80
2022/10/13 01:22:52;;;;;;;55.15;26.80;;;;;;;6.15;74.92;101695.36;1723813;81;27540;-80
2022/10/13 01:26:17;;;;;;;53.75;28.45;;;;;;;6.06;74.94;101698.80;1752359;81;25850;-82
2022/10/13 01:29:07;;;;;;;49.40;26.93;;;;;;;6.04;75.01;101694.58;1737028;81;26168;-82
2022/10/13 01:31:49;;;;;;;48.47;26.87;;;;;;;5.98;74.81;101691.97;1741223;81;25885;-81
2022/10/13 01:34:41;;;;;;;47.38;26.20;;;;;;;5.97;75.02;101687.61;1760224;79;25780;-83
2022/10/13 01:37:28;;;;;;;;;;;;;;;5.96;74.96;101685.94;1756702;79;27443;-82
2022/10/13 01:40:43;;;;;;;42.05;24.80;;;;;;;5.90;74.71;101686.43;1748061;79;25280;-84
2022/10/13 01:43:15;;;;;;;44.70;24.57;;;;;;;5.82;74.56;101683.55;1756586;79;25901;-82
2022/10/13 01:46:23;;;;;;;39.70;23.45;;;;;;;5.74;74.59;101675.39;1744121;81;25879;-83
2022/10/13 01:48:54;;;;;;;46.15;25.72;;;;;;;5.72;74.61;101673.83;1767484;81;25745;-82
2022/10/13 01:51:24;;;;;;;51.53;27.27;;;;;;;5.69;74.69;101662.96;1763716;79;27475;-82
2022/10/13 01:53:52;;;;;;;52.05;26.27;;;;;;;5.69;74.74;101666.12;1765066;78;26387;-82
2022/10/13 01:56:19;;;;;;;50.28;26.23;;;;;;;5.68;74.72;101669.27;1749832;79;25352;-82
2022/10/13 01:58:49;;;;;;;39.75;24.25;;;;;;;5.66;74.63;101662.39;1751580;81;25812;-82
2022/10/13 02:01:48;;;;;;;49.75;25.82;;;;;;;5.63;74.68;101667.95;1747757;80;25793;-82
2022/10/13 02:04:46;;;;;;;55.48;28.83;;;;;;;5.61;74.73;101670.75;1741770;81;33822;-82
2022/10/13 02:07:22;;;;;;;47.88;24.95;;;;;;;5.57;74.59;101665.81;1758451;80;25765;-82
2022/10/13 02:10:00;;;;;;;47.65;24.55;;;;;;;5.51;74.51;101661.87;1759053;80;25785;-83
2022/10/13 02:12:38;;;;;;;48.30;24.57;;;;;;;5.48;74.49;101660.78;1763783;79;25871;-82
2022/10/13 02:15:08;;;;;;;49.65;26.95;;;;;;;5.43;74.36;101651.05;1749182;79;26427;-82
2022/10/13 02:17:35;;;;;;;49.27;26.55;;;;;;;5.38;74.45;101647.44;1760065;79;26956;-82
2022/10/13 02:20:05;;;;;;;48.28;26.33;;;;;;;5.37;74.71;101655.03;1765768;79;25942;-82
2022/10/13 02:22:41;;;;;;;49.77;26.15;;;;;;;5.36;74.84;101649.86;1762992;80;25284;-83
2022/10/13 02:25:08;;;;;;;50.17;28.25;;;;;;;5.33;74.93;101650.09;1764510;80;26368;-85
2022/10/13 02:27:34;;;;;;;48.50;26.62;;;;;;;5.32;74.92;101651.09;1817944;78;26048;-85
2022/10/13 02:30:01;;;;;;;47.58;26.55;;;;;;;5.29;74.88;101656.17;1818756;78;28204;-83
2022/10/13 02:32:28;;;;;;;47.65;28.77;;;;;;;5.26;75.01;101655.59;1803889;78;26090;-83
2022/10/13 02:34:55;;;;;;;51.77;27.55;;;;;;;5.23;74.93;101655.83;1809047;78;25830;-81
2022/10/13 02:37:24;;;;;;;45.48;25.48;;;;;;;5.18;74.90;101649.56;1821033;78;25773;-87
2022/10/13 02:39:49;;;;;;;40.73;25.20;;;;;;;5.13;74.66;101649.09;1821561;77;25911;-82
2022/10/13 02:42:16;;;;;;;48.42;26.60;;;;;;;5.09;74.54;101650.31;1819983;78;28268;-81
2022/10/13 02:44:42;;;;;;;44.15;25.75;;;;;;;5.04;74.52;101655.18;1799438;78;25377;-84
2022/10/13 02:47:09;;;;;;;49.58;28.25;;;;;;;5.01;74.46;101650.11;1821381;77;25868;-81
2022/10/13 02:49:35;;;;;;;51.33;25.32;;;;;;;4.98;74.61;101650.37;1821266;78;25803;-83
2022/10/13 02:52:01;;;;;;;52.67;25.37;;;;;;;4.94;74.52;101644.11;1802744;78;25898;-83
2022/10/13 02:54:27;;;;;;;53.73;27.05;;;;;;;4.90;74.46;101643.50;1823006;78;27447;-83
2022/10/13 02:56:54;;;;;;;49.25;25.05;;;;;;;4.87;74.39;101643.77;1821563;77;26127;-82
2022/10/13 02:59:20;;;;;;;44.75;25.95;;;;;;;4.83;74.33;101647.64;1820339;78;25393;-82
2022/10/13 03:01:46;;;;;;;52.38;27.62;;;;;;;4.80;74.41;101642.56;1822214;78;26649;-82
2022/10/13 03:04:12;;;;;;;50.52;27.45;;;;;;;4.79;74.49;101638.72;1805232;78;25689;-83
2022/10/13 03:06:39;;;;;;;54.55;28.10;;;;;;;4.77;74.54;101632.19;1803810;79;28554;-82
2022/10/13 03:09:07;;;;;;;52.73;27.15;;;;;;;4.75;74.57;101639.42;1804189;79;25838;-83
2022/10/13 03:11:34;;;;;;;48.50;27.40;;;;;;;4.72;74.76;101637.52;1791625;79;25890;-83
2022/10/13 03:14:01;;;;;;;47.53;28.10;;;;;;;4.67;74.95;101635.23;1797284;79;25754;-82
2022/10/13 03:16:27;;;;;;;40.52;24.15;;;;;;;4.65;75.21;101634.52;1805336;79;25918;-82
2022/10/13 03:18:53;;;;;;;46.35;27.02;;;;;;;4.59;75.29;101633.21;1805380;79;27390;-82
2022/10/13 03:21:20;;;;;;;40.52;24.45;;;;;;;4.55;75.51;101637.55;1794091;79;25743;-82
2022/10/13 03:23:46;;;;;;;40.92;24.05;;;;;;;4.53;75.81;101636.84;1807790;79;25731;-82
2022/10/13 03:26:14;;;;;;;42.27;22.93;;;;;;;4.51;75.79;101631.62;1794622;78;26505;-82
2022/10/13 03:28:40;;;;;;;44.48;24.00;;;;;;;4.50;75.79;101635.27;1795067;79;25827;-83
2022/10/13 03:31:10;;;;;;;40.92;23.95;;;;;;;4.50;75.79;101638.39;1805356;79;27512;-83
2022/10/13 03:33:36;;;;;;;38.80;23.73;;;;;;;4.49;75.66;101630.91;1807478;79;26046;-83
2022/10/13 03:36:05;;;;;;;42.93;24.37;;;;;;;4.48;75.64;101632.37;1821728;78;25808;-83
2022/10/13 03:38:33;;;;;;;40.40;23.90;;;;;;;4.46;75.65;101629.84;1795457;78;26401;-83
2022/10/13 03:41:14;;;;;;;41.45;23.55;;;;;;;4.45;75.62;101636.11;1800508;79;25809;-83
2022/10/13 03:43:42;;;;;;;42.58;23.77;;;;;;;4.44;75.55;101639.73;1800848;79;27443;-83
2022/10/13 03:46:11;;;;;;;43.42;24.52;;;;;;;4.45;75.54;101635.25;1795886;78;25726;-83
2022/10/13 03:48:38;;;;;;;44.23;24.40;;;;;;;4.43;75.54;101641.16;1813103;78;25843;-83
2022/10/13 03:51:09;;;;;;;48.20;24.05;;;;;;;4.40;75.36;101634.32;1798495;78;27026;-86
2022/10/13 03:53:36;;;;;;;;;;;;;;;4.37;75.19;101631.05;1800076;79;26415;-83
2022/10/13 03:56:03;;;;;;;44.10;23.92;;;;;;;4.33;74.87;101630.45;1792381;79;28303;-81
2022/10/13 03:58:33;;;;;;;37.30;22.15;;;;;;;4.25;74.85;101630.70;1796519;79;26172;-82
2022/10/13 04:01:05;;;;;;;39.23;22.50;;;;;;;4.21;74.89;101624.81;1800497;79;26406;-83
2022/10/13 04:03:32;;;;;;;42.50;22.80;;;;;;;4.19;74.90;101634.66;1806790;78;26506;-83
2022/10/13 04:06:03;;;;;;;46.40;24.25;;;;;;;4.17;75.34;101632.62;1791582;79;25758;-83
2022/10/13 04:08:31;;;;;;;;;;;;;;;4.16;75.28;101638.91;1805237;79;27443;-83
2022/10/13 04:11:04;;;;;;;45.00;23.70;;;;;;;4.14;75.13;101635.53;1796763;79;26122;-83
2022/10/13 04:13:31;;;;;;;41.08;23.20;;;;;;;4.05;75.07;101632.27;1789783;79;25811;-82
2022/10/13 04:16:08;;;;;;;45.98;24.52;;;;;;;4.04;75.18;101638.55;1796760;79;25778;-82
2022/10/13 04:18:35;;;;;;;40.33;23.77;;;;;;;4.05;75.20;101636.72;1792237;79;26211;-83
2022/10/13 04:21:01;;;;;;;43.52;24.32;;;;;;;4.05;75.12;101636.72;1812147;78;27532;-82
2022/10/13 04:23:27;;;;;;;44.40;24.80;;;;;;;4.05;75.32;101638.04;1821953;78;25853;-83
2022/10/13 04:25:55;;;;;;;38.38;23.85;;;;;;;4.05;75.43;101638.04;1811244;78;26133;-82
2022/10/13 04:28:21;;;;;;;42.53;25.10;;;;;;;4.04;75.34;101635.89;1818592;78;25836;-81
2022/10/13 04:30:47;;;;;;;38.75;23.00;;;;;;;4.02;75.34;101643.09;1804887;78;25712;-83
2022/10/13 04:33:14;;;;;;;39.13;22.65;;;;;;;4.02;75.29;101643.60;1795662;79;28749;-84
2022/10/13 04:35:40;;;;;;;41.98;23.77;;;;;;;4.01;75.35;101642.75;1801051;79;25728;-83
2022/10/13 04:38:08;;;;;;;39.73;21.93;;;;;;;4.00;75.40;101647.67;1808951;77;26016;-85
2022/10/13 04:40:34;;;;;;;37.88;20.95;;;;;;;4.02;75.58;101652.38;1808071;78;26434;-84
2022/10/13 04:43:01;;;;;;;37.83;20.95;;;;;;;4.03;75.70;101650.57;1794194;79;26378;-82
2022/10/13 04:45:27;;;;;;;38.63;20.50;;;;;;;4.02;75.68;101651.05;1818882;77;27423;-82
2022/10/13 04:47:53;;;;;;;32.63;20.27;;;;;;;4.01;75.93;101655.16;1798191;78;25712;-83
2022/10/13 04:50:21;;;;;;;37.50;21.27;;;;;;;4.00;76.06;101655.62;1800260;79;25527;-81
2022/10/13 04:52:49;;;;;;;41.90;22.65;;;;;;;3.98;75.77;101651.44;1788960;79;25779;-83
2022/10/13 04:55:16;;;;;;;40.88;21.23;;;;;;;3.93;75.59;101654.44;1796858;79;25880;-83
2022/10/13 04:57:42;;;;;;;39.18;21.70;;;;;;;3.89;75.31;101652.48;1807281;78;27601;-82
2022/10/13 05:00:10;;;;;;;34.73;20.52;;;;;;;3.85;75.24;101653.69;1804265;79;25883;-83
2022/10/13 05:02:37;;;;;;;37.23;19.75;;;;;;;3.80;75.18;101647.91;1802514;79;25721;-82
2022/10/13 05:05:05;;;;;;;33.80;18.90;;;;;;;3.80;75.38;101647.06;1818098;77;25894;-82
2022/10/13 05:07:31;;;;;;;31.37;19.17;;;;;;;3.79;75.71;101644.89;1821593;77;25992;-83
2022/10/13 05:09:57;;;;;;;39.90;20.62;;;;;;;3.78;75.80;101641.03;1822454;77;27507;-82
2022/10/13 05:12:24;;;;;;;33.05;19.82;;;;;;;3.78;76.01;101644.54;1816546;78;26440;-82
2022/10/13 05:14:51;;;;;;;37.30;18.90;;;;;;;3.76;75.84;101638.98;1821595;77;26197;-82
2022/10/13 05:17:17;;;;;;;34.73;19.05;;;;;;;3.75;75.89;101643.44;1807140;78;25867;-82
2022/10/13 05:19:44;;;;;;;34.48;20.32;;;;;;;3.74;75.96;101644.89;1803560;79;25737;-83
2022/10/13 05:22:10;;;;;;;30.60;18.48;;;;;;;3.74;76.07;101650.19;1804664;79;28111;-82
2022/10/13 05:24:37;;;;;;;30.62;18.73;;;;;;;3.74;76.15;101653.66;1816145;78;25770;-83
2022/10/13 05:27:12;;;;;;;29.57;18.30;;;;;;;3.73;76.22;101648.48;1806206;77;25870;-83
2022/10/13 05:29:40;;;;;;;34.43;18.95;;;;;;;3.72;76.33;101645.48;1804848;78;25859;-82
2022/10/13 05:32:07;;;;;;;29.65;17.52;;;;;;;3.74;76.59;101643.05;1803849;77;26026;-83
2022/10/13 05:34:33;;;;;;;29.55;17.12;;;;;;;3.75;76.81;101641.26;1806571;77;27501;-82
2022/10/13 05:37:00;;;;;;;32.20;17.73;;;;;;;3.75;76.88;101642.11;1804242;77;25800;-82
2022/10/13 05:39:27;;;;;;;31.15;18.00;;;;;;;3.77;76.66;101644.16;1805448;77;25731;-82
2022/10/13 05:41:53;;;;;;;31.73;18.45;;;;;;;3.77;76.39;101645.95;1806588;78;26563;-82
2022/10/13 05:44:20;;;;;;;32.53;17.65;;;;;;;3.74;76.24;101652.84;1806479;78;25839;-83
2022/10/13 05:46:51;;;;;;;31.42;18.95;;;;;;;3.72;76.28;101662.71;1797674;78;27464;-83
2022/10/13 05:49:17;;;;;;;27.62;16.82;;;;;;;3.68;76.32;101663.41;1806373;78;25892;-83
2022/10/13 05:51:48;;;;;;;31.20;18.75;;;;;;;3.67;76.40;101664.38;1806778;78;25777;-81
2022/10/13 05:54:38;;;;;;;37.63;18.77;;;;;;;3.70;76.59;101667.28;1800276;78;26652;-82
2022/10/13 05:57:27;;;;;;;32.28;18.45;;;;;;;3.69;76.65;101662.46;1789728;78;26852;-82
2022/10/13 06:00:08;;;;;;;33.08;17.32;;;;;;;3.70;76.91;101665.95;1798679;79;27505;-83
2022/10/13 06:02:52;;;;;;;29.55;17.27;;;;;;;3.75;77.28;101665.11;1806828;79;25317;-81
2022/10/13 06:05:23;;;;;;;28.00;18.12;;;;;;;3.79;77.40;101659.46;1801798;78;25893;-83
2022/10/13 06:07:54;;;;;;;27.48;17.25;;;;;;;3.83;77.56;101654.28;1809837;77;26536;-82
2022/10/13 06:10:22;;;;;;;33.67;19.85;;;;;;;3.87;77.74;101656.23;1804181;77;26254;-83
2022/10/13 06:12:48;;;;;;;32.17;17.55;;;;;;;3.90;77.88;101649.36;1790526;78;27446;-80
2022/10/13 06:15:15;;;;;;;33.67;19.98;;;;;;;3.93;77.90;101654.91;1804126;78;27377;-81
2022/10/13 06:17:41;;;;;;;31.75;18.73;;;;;;;3.97;78.29;101663.84;1796245;78;25689;-80
2022/10/13 06:20:08;;;;;;;34.90;19.05;;;;;;;4.01;78.42;101661.30;1804033;77;25827;-82
2022/10/13 06:22:37;;;;;;;33.25;20.35;;;;;;;4.03;78.62;101654.08;1799791;78;25774;-82
2022/10/13 06:25:06;;;;;;;42.17;21.73;;;;;;;4.08;78.71;101659.02;1800266;79;28184;-81
2022/10/13 06:27:33;;;;;;;34.33;20.57;;;;;;;4.13;78.80;101652.89;1791215;79;25852;-81
2022/10/13 06:29:59;;;;;;;37.15;21.23;;;;;;;4.17;78.92;101657.81;1780728;79;25797;-83
2022/10/13 06:32:25;;;;;;;35.70;20.85;;;;;;;4.23;79.02;101655.17;1792402;79;25812;-79
2022/10/13 06:34:53;;;;;;;41.20;22.10;;;;;;;4.27;79.24;101660.13;1803787;78;25811;-81
2022/10/13 06:37:19;;;;;;;44.95;25.17;;;;;;;4.33;79.43;101660.11;1768425;78;27632;-81
2022/10/13 06:39:46;;;;;;;50.38;25.40;;;;;;;4.40;79.70;101656.87;1805576;77;25768;-82
2022/10/13 06:42:12;;;;;;;74.07;33.08;;;;;;;4.49;80.37;101652.64;1813667;78;25802;-81
2022/10/13 06:44:40;;;;;;;100.33;39.78;;;;;;;4.56;80.43;101656.47;1790456;79;25740;-81
2022/10/13 06:47:06;;;;;;;79.42;34.90;;;;;;;4.64;81.38;101653.56;1829076;77;25792;-82
2022/10/13 06:49:32;;;;;;;60.55;33.20;;;;;;;4.72;81.67;101643.67;1805144;78;27427;-82
2022/10/13 06:51:59;;;;;;;57.03;29.90;;;;;;;4.81;82.22;101649.58;1803976;78;26414;-81
2022/10/13 06:54:25;;;;;;;53.17;28.83;;;;;;;4.90;82.82;101649.31;1797706;78;25834;-82
2022/10/13 06:56:52;;;;;;;46.77;26.62;;;;;;;5.00;83.48;101643.60;1793150;78;25737;-84
2022/10/13 06:59:18;;;;;;;44.27;25.08;;;;;;;5.11;84.19;101646.23;1797785;78;25788;-86
2022/10/13 07:01:47;;;;;;;45.67;25.30;;;;;;;5.23;84.85;101639.89;1792539;78;27450;-80
2022/10/13 07:04:15;;;;;;;47.67;25.10;;;;;;;5.34;85.58;101638.52;1804769;77;25753;-80
2022/10/13 07:06:41;;;;;;;50.48;25.23;;;;;;;5.47;86.34;101640.00;1789197;78;25294;-79
2022/10/13 07:09:08;;;;;;;43.45;22.52;;;;;;;5.59;86.84;101633.30;1805049;77;25823;-79
2022/10/13 07:11:34;;;;;;;44.45;23.32;;;;;;;5.70;87.13;101630.59;1799519;77;26302;-79
2022/10/13 07:14:01;;;;;;;38.55;22.95;;;;;;;5.83;87.60;101633.41;1800293;77;27449;-78
2022/10/13 07:16:27;;;;;;;43.45;22.45;;;;;;;5.96;88.01;101629.23;1808910;77;25771;-80
2022/10/13 07:18:53;;;;;;;45.48;21.85;;;;;;;6.08;88.20;101625.51;1798138;78;25950;-79
2022/10/13 07:21:21;;;;;;;37.60;21.85;;;;;;;6.20;88.67;101619.96;1799856;77;25818;-79
2022/10/13 07:23:48;;;;;;;37.53;20.45;;;;;;;6.34;88.60;101620.58;1793253;78;26178;-79
2022/10/13 07:26:15;;;;;;;34.20;20.10;;;;;;;6.45;88.81;101620.00;1808809;78;27458;-79
2022/10/13 07:28:43;;;;;;;37.63;20.43;;;;;;;6.59;88.67;101626.74;1791742;78;25835;-79
2022/10/13 07:31:14;;;;;;;40.43;22.17;;;;;;;6.69;88.47;101627.63;1808204;77;25719;-79
2022/10/13 07:33:44;;;;;;;38.85;21.42;;;;;;;6.80;88.71;101628.84;1801024;77;25779;-80
2022/10/13 07:36:12;;;;;;;39.50;19.90;;;;;;;6.91;88.63;101628.22;1792273;78;25794;-80
2022/10/13 07:38:38;;;;;;;44.08;20.05;;;;;;;7.01;88.64;101626.40;1801348;79;28868;-80
2022/10/13 07:41:09;;;;;;;41.88;20.62;;;;;;;7.13;88.62;101625.79;1789149;78;25900;-78
2022/10/13 07:43:35;;;;;;;40.23;22.62;;;;;;;7.24;88.59;101623.00;1793012;79;25888;-80
2022/10/13 07:46:04;;;;;;;36.30;19.40;;;;;;;7.37;88.72;101620.04;1782122;78;26432;-79
2022/10/13 07:48:31;;;;;;;40.50;19.32;;;;;;;7.47;88.62;101611.05;1795669;78;25477;-80
2022/10/13 07:51:04;;;;;;;44.95;21.37;;;;;;;7.58;88.39;101610.05;1798470;78;28115;-80
2022/10/13 07:53:30;;;;;;;45.78;20.55;;;;;;;7.70;88.42;101611.56;1795504;78;25695;-83
2022/10/13 07:56:00;;;;;;;41.98;20.37;;;;;;;7.80;88.38;101603.06;1802960;78;25745;-79
2022/10/13 07:58:27;;;;;;;41.33;20.75;;;;;;;7.90;88.32;101604.36;1798136;78;26951;-79
2022/10/13 08:01:00;;;;;;;35.45;19.73;;;;;;;8.01;88.45;101599.70;1804087;78;26400;-79
2022/10/13 08:03:27;;;;;;;36.38;19.05;;;;;;;8.12;88.34;101597.34;1804160;78;28283;-80
2022/10/13 08:05:54;;;;;;;33.33;17.45;;;;;;;8.23;88.28;101593.16;1796425;78;25926;-79
2022/10/13 08:08:21;;;;;;;32.98;16.35;;;;;;;8.33;88.38;101589.97;1794277;78;26432;-79
2022/10/13 08:10:47;;;;;;;29.67;14.80;;;;;;;8.45;88.08;101585.61;1801880;78;26612;-80
2022/10/13 08:13:14;;;;;;;26.20;15.55;;;;;;;8.57;87.79;101592.09;1800746;78;26454;-79
2022/10/13 08:15:43;;;;;;;33.20;15.30;;;;;;;8.67;87.67;101584.84;1796470;78;27447;-78
2022/10/13 08:18:12;;;;;;;34.15;15.98;;;;;;;8.78;87.91;101589.49;1803793;78;25986;-80
2022/10/13 08:20:43;;;;;;;28.27;13.38;;;;;;;8.92;87.83;101588.11;1807590;78;25687;-79
2022/10/13 08:23:10;;;;;;;28.75;13.93;;;;;;;9.05;87.28;101585.91;1790691;78;26991;-79
2022/10/13 08:25:42;;;;;;;32.40;13.60;;;;;;;9.15;87.42;101581.34;1797714;78;26002;-80
2022/10/13 08:28:22;;;;;;;30.80;17.20;;;;;;;9.26;87.18;101578.41;1809816;78;28319;-80
2022/10/13 08:30:50;;;;;;;37.03;15.03;;;;;;;9.38;86.94;101585.20;1801686;78;26982;-79
2022/10/13 08:33:16;;;;;;;27.40;12.98;;;;;;;9.49;86.90;101578.28;1797522;79;25794;-79
2022/10/13 08:35:43;;;;;;;26.57;12.35;;;;;;;9.63;87.10;101573.69;1792492;79;26503;-79
2022/10/13 08:38:09;;;;;;;30.05;12.60;;;;;;;9.74;86.76;101572.09;1799966;78;26411;-79
2022/10/13 08:40:38;;;;;;;20.82;10.32;;;;;;;9.88;86.51;101575.52;1807703;78;27431;-79
2022/10/13 08:43:07;;;;;;;31.15;11.55;;;;;;;10.01;86.25;101571.91;1811511;76;25833;-80
2022/10/13 08:45:35;;;;;;;19.30;9.35;;;;;;;10.12;86.34;101568.14;1787165;78;25867;-79
2022/10/13 08:48:13;;;;;;;22.55;8.85;;;;;;;10.25;85.99;101573.89;1775551;78;25746;-80
2022/10/13 08:50:42;;;;;;;23.00;7.17;;;;;;;10.36;85.27;101566.07;1791190;78;26004;-79
2022/10/13 08:53:20;;;;;;;27.93;8.68;;;;;;;10.47;84.58;101559.08;1775072;80;27521;-80
2022/10/13 08:55:56;;;;;;;16.25;7.00;;;;;;;10.59;84.48;101559.95;1787537;79;25913;-79
2022/10/13 08:58:30;;;;;;;19.10;7.90;;;;;;;10.72;83.67;101557.64;1801333;79;25726;-79
2022/10/13 09:01:14;;;;;;;17.70;8.50;;;;;;;10.84;83.15;101554.16;1801355;78;25847;-79
2022/10/13 09:03:56;;;;;;;15.75;7.33;;;;;;;10.97;82.75;101549.66;1776142;80;26578;-81
2022/10/13 09:06:44;;;;;;;17.15;7.45;;;;;;;11.11;82.55;101548.98;1767330;79;27611;-82
2022/10/13 09:09:14;;;;;;;18.75;7.50;;;;;;;11.25;81.60;101553.16;1776128;80;25805;-81
2022/10/13 09:11:45;;;;;;;22.15;8.38;;;;;;;11.36;80.96;101544.78;1777436;79;25765;-80
2022/10/13 09:14:28;;;;;;;19.35;7.37;;;;;;;11.47;80.44;101544.94;1793773;79;25933;-80
2022/10/13 09:17:15;;;;;;;21.95;9.15;;;;;;;11.56;79.83;101537.22;1779995;79;25916;-83
2022/10/13 09:19:42;;;;;;;24.12;8.40;;;;;;;11.67;79.72;101536.91;1793942;78;27412;-80
2022/10/13 09:22:25;;;;;;;17.25;7.55;;;;;;;11.76;78.48;101534.51;1779619;78;26045;-80
2022/10/13 09:25:18;;;;;;;19.98;8.38;;;;;;;11.87;78.09;101525.28;1788381;78;26051;-80
2022/10/13 09:28:00;;;;;;;18.45;7.50;;;;;;;11.95;77.69;101526.59;1778769;79;26933;-81
2022/10/13 09:30:37;;;;;;;19.82;9.08;;;;;;;12.05;77.12;101529.41;1792066;79;26077;-80
2022/10/13 09:33:15;;;;;;;16.73;7.80;;;;;;;12.16;76.56;101532.22;1781643;78;27444;-81
2022/10/13 09:35:46;;;;;;;18.87;9.00;;;;;;;12.28;76.24;101524.09;1792673;78;26625;-81
2022/10/13 09:38:21;;;;;;;22.17;11.45;;;;;;;12.35;75.84;101530.45;1786925;79;25776;-80
2022/10/13 09:41:13;;;;;;;17.42;8.93;;;;;;;12.45;75.29;101529.71;1789076;79;26110;-81
2022/10/13 09:43:50;;;;;;;16.05;8.35;;;;;;;12.56;74.45;101520.41;1779903;79;25667;-80
2022/10/13 09:46:33;;;;;;;19.98;8.65;;;;;;;12.66;73.91;101522.39;1777833;78;28966;-81
2022/10/13 09:49:28;;;;;;;16.17;8.00;;;;;;;12.74;72.61;101513.77;1800732;78;26218;-81
2022/10/13 09:52:16;;;;;;;14.28;7.08;;;;;;;12.81;71.83;101511.20;1776778;79;25697;-79
2022/10/13 09:54:51;;;;;;;11.22;6.37;;;;;;;12.88;71.69;101505.41;1792789;79;26222;-80
2022/10/13 09:57:47;;;;;;;14.45;6.62;;;;;;;12.93;71.49;101507.06;1787824;78;25895;-80
2022/10/13 10:00:23;;;;;;;15.70;6.35;;;;;;;12.97;70.83;101503.84;1783106;78;27455;-79
2022/10/13 10:03:01;;;;;;;11.93;6.05;;;;;;;13.04;70.31;101490.00;1787381;79;25864;-80
2022/10/13 10:05:49;;;;;;;16.10;5.97;;;;;;;13.08;69.99;101487.31;1779981;79;25834;-79
2022/10/13 10:08:46;;;;;;;11.88;6.12;;;;;;;13.12;69.76;101487.27;1802357;78;26586;-79
2022/10/13 10:11:21;;;;;;;12.28;5.78;;;;;;;13.20;69.10;101485.00;1784971;79;25820;-80
2022/10/13 10:13:47;;;;;;;10.65;6.20;;;;;;;13.28;68.52;101482.75;1787944;78;27452;-81
2022/10/13 10:16:30;;;;;;;12.53;5.55;;;;;;;13.31;68.63;101479.68;1753214;79;26192;-80
2022/10/13 10:19:20;;;;;;;11.70;5.15;;;;;;;13.34;68.65;101473.45;1753487;79;25891;-80
2022/10/13 10:22:02;;;;;;;13.32;5.00;;;;;;;13.38;68.18;101470.71;1754660;79;25983;-82
2022/10/13 10:25:08;;;;;;;16.45;7.17;;;;;;;13.42;67.92;101463.94;1803171;78;25825;-81
2022/10/13 10:27:42;;;;;;;13.88;6.37;;;;;;;13.46;67.07;101463.89;1794357;79;27452;-82
2022/10/13 10:30:17;;;;;;;16.77;6.35;;;;;;;13.50;67.03;101453.08;1806462;78;26528;-80
2022/10/13 10:33:00;;;;;;;12.13;5.50;;;;;;;13.56;66.65;101448.80;1793294;78;25835;-80
2022/10/13 10:35:50;;;;;;;12.50;5.85;;;;;;;13.61;65.97;101459.35;1784929;78;25809;-80
2022/10/13 10:41:50;;;;;;;12.88;4.47;;;;;;;13.67;65.63;101446.98;1817409;75;25794;-80
2022/10/13 10:44:33;;;;;;;14.25;5.78;;;;;;;13.69;65.49;101447.13;1815164;77;25849;-80
2022/10/13 10:47:04;;;;;;;12.90;5.12;;;;;;;13.73;65.61;101450.28;1814051;77;25833;-79
2022/10/13 10:49:39;;;;;;;15.18;5.03;;;;;;;13.80;65.12;101446.67;1798261;78;25849;-80
2022/10/13 10:52:09;;;;;;;15.58;5.30;;;;;;;13.85;64.64;101442.91;1826467;77;26262;-80
2022/10/13 10:54:46;;;;;;;13.88;5.35;;;;;;;13.88;64.87;101437.13;1813434;77;28249;-81
2022/10/13 10:57:52;;;;;;;12.45;5.87;;;;;;;13.93;64.74;101437.42;1823273;77;25970;-80
2022/10/13 11:00:25;;;;;;;16.82;5.08;;;;;;;13.97;63.99;101441.91;1808622;77;25485;-80
2022/10/13 11:02:56;;;;;;;10.20;4.37;;;;;;;14.01;63.80;101441.84;1814987;77;25771;-80
2022/10/13 11:05:23;;;;;;;12.25;5.00;;;;;;;14.04;63.84;101436.09;1809454;78;25822;-82
2022/10/13 11:07:53;;;;;;;16.97;5.80;;;;;;;14.07;63.34;101430.31;1814682;77;27434;-80
2022/10/13 11:10:22;;;;;;;13.68;5.15;;;;;;;14.10;63.61;101436.68;1817345;77;25261;-80
2022/10/13 11:12:57;;;;;;;16.80;5.42;;;;;;;14.13;63.27;101422.84;1818409;77;26508;-80
2022/10/13 11:15:37;;;;;;;10.68;5.28;;;;;;;14.18;63.32;101424.44;1832331;77;26633;-80
2022/10/13 11:18:45;;;;;;;15.23;5.40;;;;;;;14.23;62.97;101422.02;1817949;77;32361;-82
2022/10/13 11:21:11;;;;;;;11.85;4.87;;;;;;;14.27;62.95;101409.83;1767394;79;27444;-79
2022/10/13 11:23:46;;;;;;;13.20;4.90;;;;;;;14.31;62.70;101411.65;1728494;80;25730;-79
2022/10/13 11:26:33;;;;;;;13.03;4.92;;;;;;;14.35;62.39;101404.34;1783079;78;26383;-80
2022/10/13 11:28:59;;;;;;;10.40;4.85;;;;;;;14.37;62.08;101398.24;1823784;77;25888;-80
2022/10/13 11:31:51;;;;;;;11.70;5.87;;;;;;;14.40;62.40;101391.13;1819347;76;25903;-80
2022/10/13 11:34:31;;;;;;;14.43;5.00;;;;;;;14.44;62.11;101387.02;1811614;77;27429;-79
2022/10/13 11:37:00;;;;;;;11.30;4.53;;;;;;;14.50;62.05;101381.36;1798025;77;26600;31
2022/10/13 11:39:54;;;;;;;11.28;4.28;;;;;;;14.52;61.61;101378.80;1813468;77;25808;-79
2022/10/13 11:42:44;;;;;;;11.00;4.28;;;;;;;14.54;61.38;101372.70;1810116;77;25848;-79
2022/10/13 11:45:19;;;;;;;7.23;4.10;;;;;;;14.57;61.19;101367.44;1812590;77;26306;-79